createdAt,value
2023-02-22T00:02:11.657Z,6.05
2023-02-22T00:05:03.763Z,6.05
2023-02-22T00:07:57.011Z,6.03
2023-02-22T00:10:51.387Z,6.00
2023-02-22T00:13:45.101Z,5.97
2023-02-22T00:16:23.911Z,5.93
2023-02-22T00:19:16.465Z,5.91
2023-02-22T00:22:08.601Z,5.86
2023-02-22T00:25:00.966Z,5.81
2023-02-22T00:27:53.766Z,5.78
2023-02-22T00:30:48.259Z,5.75
2023-02-22T00:33:41.793Z,5.70
2023-02-22T00:36:33.907Z,5.66
2023-02-22T00:39:26.085Z,5.64
2023-02-22T00:42:01.006Z,5.62
2023-02-22T00:44:53.225Z,5.63
2023-02-22T00:47:45.330Z,5.70
2023-02-22T00:50:38.355Z,5.67
2023-02-22T00:53:30.441Z,5.66
2023-02-22T00:56:22.747Z,5.68
2023-02-22T00:59:05.269Z,5.71
2023-02-22T01:01:58.561Z,5.71
2023-02-22T01:04:50.925Z,5.67
2023-02-22T01:07:43.415Z,5.64
2023-02-22T01:10:36.458Z,5.64
2023-02-22T01:13:28.519Z,5.62
2023-02-22T01:16:21.086Z,5.58
2023-02-22T01:19:13.716Z,5.53
2023-02-22T01:22:00.959Z,5.45
2023-02-22T01:24:53.354Z,5.38
2023-02-22T01:27:45.399Z,5.30
2023-02-22T01:30:38.653Z,5.21
2023-02-22T01:33:31.224Z,5.14
2023-02-22T01:36:23.420Z,5.09
2023-02-22T01:39:16.232Z,5.03
2023-02-22T01:42:09.725Z,5.00
2023-02-22T01:45:37.093Z,4.96
2023-02-22T01:48:33.879Z,4.94
2023-02-22T01:51:30.183Z,4.93
2023-02-22T01:54:26.190Z,4.98
2023-02-22T01:57:22.218Z,4.97
2023-02-22T02:00:20.571Z,4.96
2023-02-22T02:03:17.183Z,4.97
2023-02-22T02:06:13.392Z,4.97
2023-02-22T02:09:11.853Z,4.98
2023-02-22T02:12:06.465Z,4.95
2023-02-22T02:15:19.503Z,4.94
2023-02-22T02:18:13.484Z,4.87
2023-02-22T02:21:43.918Z,4.83
2023-02-22T02:25:09.411Z,4.71
2023-02-22T02:28:31.296Z,4.63
2023-02-22T02:31:54.804Z,4.62
2023-02-22T02:34:56.588Z,4.59
2023-02-22T02:37:57.528Z,4.53
2023-02-22T02:40:55.489Z,4.48
2023-02-22T02:44:02.655Z,4.43
2023-02-22T02:47:01.695Z,4.38
2023-02-22T02:50:03.062Z,4.35
2023-02-22T02:52:58.762Z,4.33
2023-02-22T02:55:51.056Z,4.28
2023-02-22T02:58:52.814Z,4.26
2023-02-22T03:01:58.344Z,4.33
2023-02-22T03:05:10.208Z,4.36
2023-02-22T03:08:02.681Z,4.41
2023-02-22T03:11:02.309Z,4.50
2023-02-22T03:14:02.370Z,4.55
2023-02-22T03:16:59.246Z,4.59
2023-02-22T03:19:59.269Z,4.58
2023-02-22T03:23:03.811Z,4.57
2023-02-22T03:26:02.406Z,4.58
2023-02-22T03:28:57.018Z,4.56
2023-02-22T03:31:53.126Z,4.56
2023-02-22T03:34:48.503Z,4.52
2023-02-22T03:37:44.995Z,4.48
2023-02-22T03:40:43.349Z,4.43
2023-02-22T03:43:39.196Z,4.39
2023-02-22T03:46:32.662Z,4.35
2023-02-22T03:49:13.967Z,4.34
2023-02-22T03:52:07.847Z,4.35
2023-02-22T03:55:00.348Z,4.35
2023-02-22T03:57:57.790Z,4.34
2023-02-22T04:00:53.053Z,4.36
2023-02-22T04:03:45.341Z,4.37
2023-02-22T04:06:37.697Z,4.41
2023-02-22T04:09:29.992Z,4.53
2023-02-22T04:12:22.060Z,4.58
2023-02-22T04:15:18.279Z,4.67
2023-02-22T04:18:10.228Z,4.77
2023-02-22T04:21:02.590Z,4.83
2023-02-22T04:23:54.719Z,4.89
2023-02-22T04:26:46.832Z,4.84
2023-02-22T04:29:38.970Z,4.81
2023-02-22T04:32:31.120Z,4.80
2023-02-22T04:35:23.604Z,4.76
2023-02-22T04:38:15.767Z,4.74
2023-02-22T04:41:08.060Z,4.67
2023-02-22T04:44:00.217Z,4.64
2023-02-22T04:46:52.708Z,4.58
2023-02-22T04:49:45.632Z,4.52
2023-02-22T04:52:37.740Z,4.45
2023-02-22T04:55:29.940Z,4.35
2023-02-22T04:58:22.126Z,4.28
2023-02-22T05:01:15.302Z,4.20
2023-02-22T05:04:08.973Z,4.16
2023-02-22T05:07:01.175Z,4.14
2023-02-22T05:09:44.546Z,4.12
2023-02-22T05:12:19.340Z,4.12
2023-02-22T05:15:12.703Z,4.22
2023-02-22T05:17:55.372Z,4.28
2023-02-22T05:20:47.469Z,4.32
2023-02-22T05:23:39.674Z,4.41
2023-02-22T05:26:31.802Z,4.50
2023-02-22T05:29:23.947Z,4.59
2023-02-22T05:32:02.627Z,4.65
2023-02-22T05:34:54.785Z,4.67
2023-02-22T05:37:47.253Z,4.68
2023-02-22T05:40:39.857Z,4.68
2023-02-22T05:43:32.061Z,4.69
2023-02-22T05:46:24.311Z,4.70
2023-02-22T05:49:16.918Z,4.71
2023-02-22T05:52:09.283Z,4.70
2023-02-22T05:55:01.561Z,4.72
2023-02-22T05:57:38.670Z,4.72
2023-02-22T06:00:32.339Z,4.73
2023-02-22T06:03:24.502Z,4.71
2023-02-22T06:06:17.309Z,4.70
2023-02-22T06:09:09.481Z,4.72
2023-02-22T06:12:01.709Z,4.75
2023-02-22T06:14:53.910Z,4.78
2023-02-22T06:17:33.836Z,4.90
2023-02-22T06:20:28.063Z,4.95
2023-02-22T06:23:18.617Z,5.04
2023-02-22T06:26:10.877Z,5.10
2023-02-22T06:29:03.038Z,5.19
2023-02-22T06:31:55.300Z,5.33
2023-02-22T06:34:48.512Z,5.42
2023-02-22T06:37:42.137Z,5.48
2023-02-22T06:40:34.466Z,5.53
2023-02-22T06:43:26.869Z,5.55
2023-02-22T06:46:21.184Z,5.60
2023-02-22T06:49:11.731Z,5.61
2023-02-22T06:52:05.099Z,5.60
2023-02-22T06:54:57.256Z,5.62
2023-02-22T06:57:49.472Z,5.68
2023-02-22T07:00:41.609Z,5.75
2023-02-22T07:03:33.824Z,5.79
2023-02-22T07:06:16.981Z,5.80
2023-02-22T07:09:09.144Z,5.87
2023-02-22T07:12:01.358Z,5.90
2023-02-22T07:14:33.427Z,5.86
2023-02-22T07:17:25.573Z,5.88
2023-02-22T07:20:18.029Z,5.97
2023-02-22T07:23:10.187Z,6.09
2023-02-22T07:26:05.264Z,6.10
2023-02-22T07:28:40.224Z,6.17
2023-02-22T07:31:38.103Z,6.28
2023-02-22T07:34:30.834Z,6.36
2023-02-22T07:37:22.911Z,6.45
2023-02-22T07:40:15.785Z,6.59
2023-02-22T07:43:19.360Z,6.60
2023-02-22T07:46:03.228Z,6.57
2023-02-22T07:48:55.401Z,6.53
2023-02-22T07:51:47.616Z,6.52
2023-02-22T07:54:40.248Z,6.53
2023-02-22T07:57:32.300Z,6.54
2023-02-22T08:00:29.253Z,6.58
2023-02-22T08:03:08.875Z,6.63
2023-02-22T08:06:02.977Z,6.68
2023-02-22T08:08:55.100Z,6.75
2023-02-22T08:11:47.283Z,6.85
2023-02-22T08:14:39.351Z,6.93
2023-02-22T08:17:31.633Z,6.97
2023-02-22T08:20:24.303Z,6.97
2023-02-22T08:23:17.518Z,7.00
2023-02-22T08:25:52.400Z,7.05
2023-02-22T08:28:44.726Z,7.19
2023-02-22T08:31:22.101Z,7.32
2023-02-22T08:34:14.409Z,7.43
2023-02-22T08:37:06.990Z,7.53
2023-02-22T08:39:59.136Z,7.66
2023-02-22T08:42:51.621Z,7.73
2023-02-22T08:45:45.295Z,7.84
2023-02-22T08:48:37.579Z,7.94
2023-02-22T08:51:30.017Z,8.01
2023-02-22T08:54:06.830Z,8.10
2023-02-22T08:56:58.966Z,8.15
2023-02-22T08:59:52.521Z,8.18
2023-02-22T09:02:44.821Z,8.25
2023-02-22T09:05:37.113Z,8.27
2023-02-22T09:08:29.189Z,8.31
2023-02-22T09:11:10.388Z,8.40
2023-02-22T09:14:02.625Z,8.54
2023-02-22T09:16:39.727Z,8.62
2023-02-22T09:19:32.121Z,8.63
2023-02-22T09:22:24.218Z,8.67
2023-02-22T09:25:17.653Z,8.64
2023-02-22T09:28:10.309Z,8.67
2023-02-22T09:31:02.495Z,8.80
2023-02-22T09:33:54.631Z,8.90
2023-02-22T09:36:47.618Z,9.06
2023-02-22T09:39:39.829Z,9.18
2023-02-22T09:42:21.774Z,9.22
2023-02-22T09:45:22.343Z,9.31
2023-02-22T09:48:22.113Z,9.36
2023-02-22T09:51:02.730Z,9.51
2023-02-22T09:54:01.678Z,9.74
2023-02-22T09:56:58.514Z,9.93
2023-02-22T10:00:00.999Z,10.09
2023-02-22T10:03:01.761Z,10.26
2023-02-22T10:06:01.957Z,10.38
2023-02-22T10:08:56.885Z,10.39
2023-02-22T10:11:57.705Z,10.44
2023-02-22T10:15:31.608Z,10.43
2023-02-22T10:18:47.953Z,10.38
2023-02-22T10:21:54.644Z,10.32
2023-02-22T10:24:55.764Z,10.12
2023-02-22T10:27:54.751Z,10.07
2023-02-22T10:30:54.745Z,10.06
2023-02-22T10:33:52.184Z,10.06
2023-02-22T10:36:44.700Z,10.00
2023-02-22T10:39:39.503Z,9.97
2023-02-22T10:42:32.497Z,10.00
2023-02-22T10:45:28.523Z,10.01
2023-02-22T10:48:22.600Z,10.08
2023-02-22T10:51:15.094Z,10.13
2023-02-22T10:54:26.918Z,10.12
2023-02-22T10:57:23.978Z,10.06
2023-02-22T11:00:26.279Z,9.98
2023-02-22T11:03:21.883Z,9.81
2023-02-22T11:06:22.722Z,9.70
2023-02-22T11:09:17.903Z,9.62
2023-02-22T11:12:19.812Z,9.52
2023-02-22T11:15:31.262Z,9.42
2023-02-22T11:18:28.911Z,9.36
2023-02-22T11:21:16.678Z,9.31
2023-02-22T11:24:08.530Z,9.31
2023-02-22T11:26:51.760Z,9.31
2023-02-22T11:29:43.174Z,9.32
2023-02-22T11:32:36.480Z,9.31
2023-02-22T11:35:41.356Z,9.35
2023-02-22T11:38:34.769Z,9.40
2023-02-22T11:41:19.355Z,9.39
2023-02-22T11:44:26.585Z,9.40
2023-02-22T11:47:18.766Z,9.39
2023-02-22T11:50:20.419Z,9.40
2023-02-22T11:53:25.282Z,9.48
2023-02-22T11:56:36.936Z,9.56
2023-02-22T11:59:40.664Z,9.60
2023-02-22T12:02:56.692Z,9.59
2023-02-22T12:05:59.540Z,9.52
2023-02-22T12:09:01.626Z,9.45
2023-02-22T12:12:05.397Z,9.44
2023-02-22T12:15:09.231Z,9.37
2023-02-22T12:18:11.726Z,9.26
2023-02-22T12:21:08.475Z,9.21
2023-02-22T12:24:07.263Z,9.22
2023-02-22T12:27:06.733Z,9.26
2023-02-22T12:30:04.344Z,9.35
2023-02-22T12:32:47.098Z,9.46
2023-02-22T12:35:46.131Z,9.54
2023-02-22T12:38:44.293Z,9.61
2023-02-22T12:41:43.842Z,9.66
2023-02-22T12:44:40.633Z,9.72
2023-02-22T12:47:31.319Z,9.83
2023-02-22T12:50:22.397Z,9.99
2023-02-22T12:53:21.154Z,10.10
2023-02-22T12:56:22.178Z,10.11
2023-02-22T12:59:02.936Z,10.10
2023-02-22T13:01:59.573Z,10.11
2023-02-22T13:04:41.809Z,10.08
2023-02-22T13:07:43.536Z,10.05
2023-02-22T13:10:58.814Z,10.00
2023-02-22T13:14:00.887Z,9.96
2023-02-22T13:17:01.905Z,9.93
2023-02-22T13:20:06.069Z,9.90
2023-02-22T13:23:04.983Z,9.81
2023-02-22T13:26:01.333Z,9.75
2023-02-22T13:29:00.788Z,9.72
2023-02-22T13:32:13.676Z,9.64
2023-02-22T13:35:35.050Z,9.56
2023-02-22T13:39:01.073Z,9.53
2023-02-22T13:42:06.244Z,9.52
2023-02-22T13:45:42.499Z,9.52
2023-02-22T13:48:56.042Z,9.49
2023-02-22T13:51:51.841Z,9.49
2023-02-22T13:54:47.144Z,9.48
2023-02-22T13:57:25.817Z,9.48
2023-02-22T14:00:41.709Z,9.49
2023-02-22T14:03:41.855Z,9.52
2023-02-22T14:06:41.626Z,9.50
2023-02-22T14:09:49.675Z,9.30
2023-02-22T14:12:52.939Z,9.31
2023-02-22T14:16:16.538Z,9.34
2023-02-22T14:19:23.026Z,9.37
2023-02-22T14:22:06.834Z,9.38
2023-02-22T14:25:02.414Z,9.37
2023-02-22T14:27:55.279Z,9.36
2023-02-22T14:30:47.697Z,9.34
2023-02-22T14:34:14.143Z,9.32
2023-02-22T14:37:10.296Z,9.30
2023-02-22T14:40:12.923Z,9.29
2023-02-22T14:43:09.567Z,9.28
2023-02-22T14:46:05.317Z,9.26
2023-02-22T14:48:42.974Z,9.23
2023-02-22T14:51:49.942Z,9.20
2023-02-22T14:54:53.721Z,9.19
2023-02-22T14:58:01.541Z,9.15
2023-02-22T15:00:56.852Z,9.10
2023-02-22T15:03:55.954Z,9.06
2023-02-22T15:06:55.990Z,9.01
2023-02-22T15:09:48.422Z,8.97
2023-02-22T15:12:40.520Z,8.93
2023-02-22T15:15:33.602Z,8.89
2023-02-22T15:18:29.451Z,8.85
2023-02-22T15:21:25.122Z,8.82
2023-02-22T15:24:25.269Z,8.79
2023-02-22T15:27:20.795Z,8.74
2023-02-22T15:30:21.832Z,8.68
2023-02-22T15:33:17.472Z,8.64
2023-02-22T15:36:17.659Z,8.59
2023-02-22T15:39:25.576Z,8.56
2023-02-22T15:42:20.972Z,8.52
2023-02-22T15:45:17.737Z,8.48
2023-02-22T15:48:12.001Z,8.44
2023-02-22T15:51:11.299Z,8.42
2023-02-22T15:54:07.995Z,8.38
2023-02-22T15:57:01.628Z,8.34
2023-02-22T15:59:45.562Z,8.32
2023-02-22T16:02:41.622Z,8.28
2023-02-22T16:05:42.688Z,8.23
2023-02-22T16:08:54.006Z,8.16
2023-02-22T16:11:47.937Z,8.06
2023-02-22T16:14:44.935Z,7.99
2023-02-22T16:17:49.363Z,7.93
2023-02-22T16:20:44.697Z,7.88
2023-02-22T16:23:46.802Z,7.83
2023-02-22T16:26:38.911Z,7.76
2023-02-22T16:29:31.213Z,7.62
2023-02-22T16:32:15.481Z,7.49
2023-02-22T16:35:17.847Z,7.34
2023-02-22T16:38:16.801Z,7.20
2023-02-22T16:41:09.898Z,7.07
2023-02-22T16:44:02.730Z,6.95
2023-02-22T16:46:50.833Z,6.85
2023-02-22T16:49:43.232Z,6.76
2023-02-22T16:52:35.509Z,6.65
2023-02-22T16:55:27.943Z,6.53
2023-02-22T16:58:20.927Z,6.42
2023-02-22T17:01:13.758Z,6.34
2023-02-22T17:04:14.469Z,6.23
2023-02-22T17:07:09.201Z,6.13
2023-02-22T17:10:03.657Z,6.02
2023-02-22T17:12:56.838Z,5.94
2023-02-22T17:15:49.207Z,5.90
2023-02-22T17:18:41.896Z,5.82
2023-02-22T17:21:33.950Z,5.73
2023-02-22T17:24:29.154Z,5.64
2023-02-22T17:27:21.535Z,5.56
2023-02-22T17:30:17.024Z,5.45
2023-02-22T17:33:16.011Z,5.34
2023-02-22T17:36:09.464Z,5.26
2023-02-22T17:39:02.038Z,5.20
2023-02-22T17:41:40.819Z,5.12
2023-02-22T17:44:33.423Z,5.07
2023-02-22T17:47:05.330Z,4.99
2023-02-22T17:49:57.960Z,4.92
2023-02-22T17:52:51.918Z,4.84
2023-02-22T17:55:45.088Z,4.75
2023-02-22T17:58:37.782Z,4.69
2023-02-22T18:01:33.724Z,4.63
2023-02-22T18:04:26.015Z,4.56
2023-02-22T18:07:19.841Z,4.49
2023-02-22T18:10:12.854Z,4.44
2023-02-22T18:13:05.070Z,4.40
2023-02-22T18:16:00.627Z,4.34
2023-02-22T18:18:53.109Z,4.26
2023-02-22T18:21:26.902Z,4.20
2023-02-22T18:23:59.027Z,4.15
2023-02-22T18:26:51.238Z,4.11
2023-02-22T18:29:43.670Z,4.14
2023-02-22T18:32:35.835Z,4.12
2023-02-22T18:35:28.379Z,4.13
2023-02-22T18:38:00.834Z,4.14
2023-02-22T18:41:02.196Z,4.17
2023-02-22T18:43:55.321Z,4.15
2023-02-22T18:46:47.787Z,4.17
2023-02-22T18:49:41.918Z,4.15
2023-02-22T18:52:35.090Z,4.12
2023-02-22T18:55:27.676Z,4.10
2023-02-22T18:58:19.903Z,4.04
2023-02-22T19:00:55.316Z,4.00
2023-02-22T19:03:48.058Z,3.94
2023-02-22T19:06:40.536Z,3.85
2023-02-22T19:09:32.641Z,3.74
2023-02-22T19:12:27.127Z,3.69
2023-02-22T19:15:19.504Z,3.66
2023-02-22T19:18:11.704Z,3.59
2023-02-22T19:21:08.468Z,3.55
2023-02-22T19:23:45.691Z,3.52
2023-02-22T19:26:38.385Z,3.45
2023-02-22T19:29:31.292Z,3.37
2023-02-22T19:32:24.153Z,3.34
2023-02-22T19:35:07.736Z,3.31
2023-02-22T19:38:00.828Z,3.29
2023-02-22T19:40:55.474Z,3.22
2023-02-22T19:43:48.488Z,3.16
2023-02-22T19:46:25.020Z,3.11
2023-02-22T19:49:17.858Z,3.04
2023-02-22T19:52:10.059Z,2.95
2023-02-22T19:55:02.166Z,2.89
2023-02-22T19:57:54.469Z,2.83
2023-02-22T20:00:46.937Z,2.76
2023-02-22T20:03:39.367Z,2.71
2023-02-22T20:06:35.105Z,2.67
2023-02-22T20:09:36.244Z,2.63
2023-02-22T20:12:28.887Z,2.69
2023-02-22T20:15:23.816Z,2.70
2023-02-22T20:18:06.615Z,2.71
2023-02-22T20:20:58.736Z,2.71
2023-02-22T20:23:51.365Z,2.74
2023-02-22T20:26:44.424Z,2.72
2023-02-22T20:29:36.507Z,2.73
2023-02-22T20:32:30.536Z,2.71
2023-02-22T20:35:22.981Z,2.70
2023-02-22T20:38:15.512Z,2.69
2023-02-22T20:41:09.972Z,2.69
2023-02-22T20:44:03.710Z,2.67
2023-02-22T20:46:56.324Z,2.64
2023-02-22T20:49:48.868Z,2.61
2023-02-22T20:52:41.138Z,2.57
2023-02-22T20:55:33.442Z,2.54
2023-02-22T20:58:25.988Z,2.52
2023-02-22T21:01:06.357Z,2.52
2023-02-22T21:04:02.029Z,2.53
2023-02-22T21:06:54.355Z,2.50
2023-02-22T21:09:46.681Z,2.46
2023-02-22T21:12:38.807Z,2.43
2023-02-22T21:15:30.929Z,2.41
2023-02-22T21:18:25.089Z,2.37
2023-02-22T21:21:17.597Z,2.30
2023-02-22T21:24:11.891Z,2.26
2023-02-22T21:27:02.632Z,2.25
2023-02-22T21:29:58.376Z,2.20
2023-02-22T21:32:54.573Z,2.17
2023-02-22T21:35:47.228Z,2.13
2023-02-22T21:38:39.501Z,2.13
2023-02-22T21:41:34.017Z,2.09
2023-02-22T21:44:26.078Z,2.02
2023-02-22T21:47:18.164Z,1.98
2023-02-22T21:50:12.684Z,1.93
2023-02-22T21:53:05.899Z,1.88
2023-02-22T21:56:03.589Z,1.82
2023-02-22T21:58:59.962Z,1.82
2023-02-22T22:01:55.763Z,1.82
2023-02-22T22:04:48.681Z,1.84
2023-02-22T22:07:41.509Z,1.87
2023-02-22T22:10:33.575Z,1.87
2023-02-22T22:13:26.506Z,1.90
2023-02-22T22:16:20.415Z,1.91
2023-02-22T22:19:13.125Z,1.87
2023-02-22T22:22:05.259Z,1.84
2023-02-22T22:24:57.402Z,1.86
2023-02-22T22:27:50.143Z,1.87
2023-02-22T22:30:43.482Z,1.89
2023-02-22T22:33:36.633Z,1.86
2023-02-22T22:36:29.603Z,1.84
2023-02-22T22:39:21.770Z,1.84
2023-02-22T22:42:14.064Z,1.83
2023-02-22T22:45:10.236Z,1.80
2023-02-22T22:48:02.370Z,1.81
2023-02-22T22:51:02.516Z,1.81
2023-02-22T22:53:54.836Z,1.81
2023-02-22T22:56:46.921Z,1.78
2023-02-22T22:59:39.667Z,1.78
2023-02-22T23:02:32.059Z,1.77
2023-02-22T23:05:27.777Z,1.80
2023-02-22T23:08:20.816Z,1.82
2023-02-22T23:11:13.697Z,1.78
2023-02-22T23:14:07.151Z,1.73
2023-02-22T23:17:03.451Z,1.68
2023-02-22T23:19:56.028Z,1.67
2023-02-22T23:22:48.199Z,1.66
2023-02-22T23:25:41.640Z,1.66
2023-02-22T23:28:33.722Z,1.66
2023-02-22T23:31:29.362Z,1.64
2023-02-22T23:34:23.782Z,1.65
2023-02-22T23:37:15.948Z,1.62
2023-02-22T23:40:16.923Z,1.63
2023-02-22T23:43:11.680Z,1.70
2023-02-22T23:46:10.912Z,1.73
2023-02-22T23:49:03.466Z,1.77
2023-02-22T23:51:55.776Z,1.81
2023-02-22T23:54:48.107Z,1.86
2023-02-22T23:57:43.123Z,1.84
